Thornton, Iowa
Current Conditions -  °F | °C
As of 11:53 PM on Friday 24 Oct 2014 (Local Time) from KMCW Reporting Station
Clear Clear  
Wind Chill: 53°   Ceiling: Unl
Heat Index: 53°   Visibility: 10mi
Dew Point: 50°   Wind: 7mph
Humidity: 89%   Direction: 260°W
Pressure: 29.95"   Gusts: NA
Location:  42.94°N, 93.38°W
Report Text: KMCW 250453Z AUTO 26006KT 10SM CLR 12/10 A2995 RMK AO2 SLP140 T01170100
Loading
Personal Weather Stations






























Interactive Weather Map
Tropical Storm Tracking
New forecast layout! Learn more

10-Day Weather Forecast

Advertisements
Track Severe Weather on mobile